Terminal Aerodrome Forecast
Issued by NWS New Orleans/Baton Rouge, LA

Current Version | Previous Version | Text Only | Print | Product List | Glossary On
Versions: 1 2 3 4 5 6 7 8 9 10 11 12 13 14 15 16 17 18 19 20 21 22 23 24 25 26 27 28 29 30 31 32 33
000
FTUS44 KLIX 212340
TAFNEW
TAF
KNEW 212340Z 2200/2224 17015G25KT 6SM HZ SCT025 BKN070
     FM220300 17010KT 6SM HZ SCT015 BKN045
     FM220700 16009KT 5SM BR BKN015
     FM221500 15010KT P6SM SCT015 BKN050=

USA.gov is the U.S. government's official web portal to all federal, state and local government web resources and services.